sensor_id;sensor_type;location;lat;lon;timestamp;temperature;humidity
79301;SHT31;68755;51.984;5.646;2023-08-01T00:01:13;20.1;73.2
79301;SHT31;68755;51.984;5.646;2023-08-01T00:03:43;20.1;73.3
79301;SHT31;68755;51.984;5.646;2023-08-01T00:06:13;20.1;73.1
79301;SHT31;68755;51.984;5.646;2023-08-01T00:08:42;20.1;72.5
79301;SHT31;68755;51.984;5.646;2023-08-01T00:11:12;20.1;72.4
79301;SHT31;68755;51.984;5.646;2023-08-01T00:13:43;20.1;72.7
79301;SHT31;68755;51.984;5.646;2023-08-01T00:16:15;20.1;72.8
79301;SHT31;68755;51.984;5.646;2023-08-01T00:18:45;20.1;72.8
79301;SHT31;68755;51.984;5.646;2023-08-01T00:21:14;20.1;73.0
79301;SHT31;68755;51.984;5.646;2023-08-01T00:23:44;20.0;73.1
79301;SHT31;68755;51.984;5.646;2023-08-01T00:26:14;20.0;73.1
79301;SHT31;68755;51.984;5.646;2023-08-01T00:28:43;20.0;72.7
79301;SHT31;68755;51.984;5.646;2023-08-01T00:31:13;20.0;73.0
79301;SHT31;68755;51.984;5.646;2023-08-01T00:33:42;20.0;73.0
79301;SHT31;68755;51.984;5.646;2023-08-01T00:36:12;20.0;73.2
79301;SHT31;68755;51.984;5.646;2023-08-01T00:38:42;20.0;73.0
79301;SHT31;68755;51.984;5.646;2023-08-01T00:41:12;20.0;73.3
79301;SHT31;68755;51.984;5.646;2023-08-01T00:43:44;20.0;73.4
79301;SHT31;68755;51.984;5.646;2023-08-01T00:46:14;20.0;73.5
79301;SHT31;68755;51.984;5.646;2023-08-01T00:48:44;20.0;73.5
79301;SHT31;68755;51.984;5.646;2023-08-01T00:51:15;20.0;73.4
79301;SHT31;68755;51.984;5.646;2023-08-01T00:53:45;20.0;73.3
79301;SHT31;68755;51.984;5.646;2023-08-01T00:56:15;20.0;73.2
79301;SHT31;68755;51.984;5.646;2023-08-01T00:58:47;20.0;73.2
79301;SHT31;68755;51.984;5.646;2023-08-01T01:01:16;20.0;73.0
79301;SHT31;68755;51.984;5.646;2023-08-01T01:03:48;20.0;73.0
79301;SHT31;68755;51.984;5.646;2023-08-01T01:06:22;20.0;73.3
79301;SHT31;68755;51.984;5.646;2023-08-01T01:08:53;20.0;73.1
79301;SHT31;68755;51.984;5.646;2023-08-01T01:11:24;20.0;72.9
79301;SHT31;68755;51.984;5.646;2023-08-01T01:13:53;20.0;73.2
79301;SHT31;68755;51.984;5.646;2023-08-01T01:16:25;19.9;73.1
79301;SHT31;68755;51.984;5.646;2023-08-01T01:18:55;19.9;73.3
79301;SHT31;68755;51.984;5.646;2023-08-01T01:21:24;19.9;73.4
79301;SHT31;68755;51.984;5.646;2023-08-01T01:23:57;19.9;73.4
79301;SHT31;68755;51.984;5.646;2023-08-01T01:26:27;19.9;73.7
79301;SHT31;68755;51.984;5.646;2023-08-01T01:28:58;19.8;73.7
79301;SHT31;68755;51.984;5.646;2023-08-01T01:31:28;19.8;73.8
79301;SHT31;68755;51.984;5.646;2023-08-01T01:33:59;19.8;73.9
79301;SHT31;68755;51.984;5.646;2023-08-01T01:36:29;19.8;73.8
79301;SHT31;68755;51.984;5.646;2023-08-01T01:38:59;19.8;73.6
79301;SHT31;68755;51.984;5.646;2023-08-01T01:41:28;19.7;73.8
79301;SHT31;68755;51.984;5.646;2023-08-01T01:43:58;19.7;73.6
79301;SHT31;68755;51.984;5.646;2023-08-01T01:46:27;19.7;73.3
79301;SHT31;68755;51.984;5.646;2023-08-01T01:48:59;19.7;73.3
79301;SHT31;68755;51.984;5.646;2023-08-01T01:51:30;19.6;73.3
79301;SHT31;68755;51.984;5.646;2023-08-01T01:54:00;19.6;73.2
79301;SHT31;68755;51.984;5.646;2023-08-01T01:56:29;19.6;73.3
79301;SHT31;68755;51.984;5.646;2023-08-01T01:59:00;19.6;73.3
79301;SHT31;68755;51.984;5.646;2023-08-01T02:01:29;19.5;73.3
79301;SHT31;68755;51.984;5.646;2023-08-01T02:03:59;19.5;73.3
79301;SHT31;68755;51.984;5.646;2023-08-01T02:06:29;19.5;73.3
79301;SHT31;68755;51.984;5.646;2023-08-01T02:08:58;19.5;73.4
79301;SHT31;68755;51.984;5.646;2023-08-01T02:11:28;19.4;73.5
79301;SHT31;68755;51.984;5.646;2023-08-01T02:13:58;19.4;73.5
79301;SHT31;68755;51.984;5.646;2023-08-01T02:16:29;19.4;73.5
79301;SHT31;68755;51.984;5.646;2023-08-01T02:18:59;19.4;73.5
79301;SHT31;68755;51.984;5.646;2023-08-01T02:21:28;19.4;73.7
79301;SHT31;68755;51.984;5.646;2023-08-01T02:23:58;19.3;73.7
79301;SHT31;68755;51.984;5.646;2023-08-01T02:26:27;19.3;73.7
79301;SHT31;68755;51.984;5.646;2023-08-01T02:28:57;19.3;73.6
79301;SHT31;68755;51.984;5.646;2023-08-01T02:31:27;19.3;73.7
79301;SHT31;68755;51.984;5.646;2023-08-01T02:33:56;19.3;73.9
79301;SHT31;68755;51.984;5.646;2023-08-01T02:36:26;19.2;73.8
79301;SHT31;68755;51.984;5.646;2023-08-01T02:38:55;19.2;73.9
79301;SHT31;68755;51.984;5.646;2023-08-01T02:41:25;19.2;74.0
79301;SHT31;68755;51.984;5.646;2023-08-01T02:43:55;19.2;74.1
79301;SHT31;68755;51.984;5.646;2023-08-01T02:46:25;19.2;74.0
79301;SHT31;68755;51.984;5.646;2023-08-01T02:48:57;19.2;73.9
79301;SHT31;68755;51.984;5.646;2023-08-01T02:51:27;19.2;74.0
79301;SHT31;68755;51.984;5.646;2023-08-01T02:53:56;19.2;74.2
79301;SHT31;68755;51.984;5.646;2023-08-01T02:56:28;19.1;74.5
79301;SHT31;68755;51.984;5.646;2023-08-01T02:58:57;19.1;74.6
79301;SHT31;68755;51.984;5.646;2023-08-01T03:01:29;19.1;74.8
79301;SHT31;68755;51.984;5.646;2023-08-01T03:03:58;19.1;74.9
79301;SHT31;68755;51.984;5.646;2023-08-01T03:06:28;19.2;74.9
79301;SHT31;68755;51.984;5.646;2023-08-01T03:08:58;19.2;75.1
79301;SHT31;68755;51.984;5.646;2023-08-01T03:11:27;19.2;75.1
79301;SHT31;68755;51.984;5.646;2023-08-01T03:13:57;19.2;75.0
79301;SHT31;68755;51.984;5.646;2023-08-01T03:16:27;19.2;74.9
79301;SHT31;68755;51.984;5.646;2023-08-01T03:18:56;19.2;75.0
79301;SHT31;68755;51.984;5.646;2023-08-01T03:21:32;19.2;75.1
79301;SHT31;68755;51.984;5.646;2023-08-01T03:24:04;19.2;75.1
79301;SHT31;68755;51.984;5.646;2023-08-01T03:26:36;19.2;75.1
79301;SHT31;68755;51.984;5.646;2023-08-01T03:29:07;19.2;75.2
79301;SHT31;68755;51.984;5.646;2023-08-01T03:31:37;19.2;75.2
79301;SHT31;68755;51.984;5.646;2023-08-01T03:34:09;19.2;75.1
79301;SHT31;68755;51.984;5.646;2023-08-01T03:36:40;19.2;75.0
79301;SHT31;68755;51.984;5.646;2023-08-01T03:39:11;19.2;74.9
79301;SHT31;68755;51.984;5.646;2023-08-01T03:41:41;19.2;74.9
79301;SHT31;68755;51.984;5.646;2023-08-01T03:44:10;19.2;75.0
79301;SHT31;68755;51.984;5.646;2023-08-01T03:46:40;19.2;75.0
79301;SHT31;68755;51.984;5.646;2023-08-01T03:49:10;19.2;75.2
79301;SHT31;68755;51.984;5.646;2023-08-01T03:51:39;19.2;75.1
79301;SHT31;68755;51.984;5.646;2023-08-01T03:54:09;19.2;74.9
79301;SHT31;68755;51.984;5.646;2023-08-01T03:56:39;19.2;75.0
79301;SHT31;68755;51.984;5.646;2023-08-01T03:59:11;19.2;75.1
79301;SHT31;68755;51.984;5.646;2023-08-01T04:01:41;19.2;75.1
79301;SHT31;68755;51.984;5.646;2023-08-01T04:04:11;19.2;75.2
79301;SHT31;68755;51.984;5.646;2023-08-01T04:06:41;19.2;75.2
79301;SHT31;68755;51.984;5.646;2023-08-01T04:09:11;19.2;75.1
79301;SHT31;68755;51.984;5.646;2023-08-01T04:11:40;19.2;75.0
79301;SHT31;68755;51.984;5.646;2023-08-01T04:14:10;19.2;75.0
79301;SHT31;68755;51.984;5.646;2023-08-01T04:16:40;19.2;75.2
79301;SHT31;68755;51.984;5.646;2023-08-01T04:19:09;19.2;75.3
79301;SHT31;68755;51.984;5.646;2023-08-01T04:21:39;19.2;75.3
79301;SHT31;68755;51.984;5.646;2023-08-01T04:24:08;19.2;75.6
79301;SHT31;68755;51.984;5.646;2023-08-01T04:26:38;19.2;75.5
79301;SHT31;68755;51.984;5.646;2023-08-01T04:29:08;19.2;75.7
79301;SHT31;68755;51.984;5.646;2023-08-01T04:31:37;19.2;75.6
79301;SHT31;68755;51.984;5.646;2023-08-01T04:34:07;19.2;75.3
79301;SHT31;68755;51.984;5.646;2023-08-01T04:36:37;19.2;75.3
79301;SHT31;68755;51.984;5.646;2023-08-01T04:39:07;19.2;75.2
79301;SHT31;68755;51.984;5.646;2023-08-01T04:41:36;19.2;75.1
79301;SHT31;68755;51.984;5.646;2023-08-01T04:44:06;19.2;75.1
79301;SHT31;68755;51.984;5.646;2023-08-01T04:46:36;19.2;75.1
79301;SHT31;68755;51.984;5.646;2023-08-01T04:49:05;19.2;75.2
79301;SHT31;68755;51.984;5.646;2023-08-01T04:51:35;19.2;75.3
79301;SHT31;68755;51.984;5.646;2023-08-01T04:54:05;19.2;75.3
79301;SHT31;68755;51.984;5.646;2023-08-01T04:56:34;19.2;75.2
79301;SHT31;68755;51.984;5.646;2023-08-01T04:59:04;19.2;75.2
79301;SHT31;68755;51.984;5.646;2023-08-01T05:01:34;19.2;75.0
79301;SHT31;68755;51.984;5.646;2023-08-01T05:04:03;19.2;74.9
79301;SHT31;68755;51.984;5.646;2023-08-01T05:06:33;19.2;74.9
79301;SHT31;68755;51.984;5.646;2023-08-01T05:09:03;19.2;74.9
79301;SHT31;68755;51.984;5.646;2023-08-01T05:11:32;19.2;75.0
79301;SHT31;68755;51.984;5.646;2023-08-01T05:14:02;19.2;75.0
79301;SHT31;68755;51.984;5.646;2023-08-01T05:16:32;19.2;74.9
79301;SHT31;68755;51.984;5.646;2023-08-01T05:19:02;19.2;74.9
79301;SHT31;68755;51.984;5.646;2023-08-01T05:21:31;19.2;75.0
79301;SHT31;68755;51.984;5.646;2023-08-01T05:24:03;19.2;75.3
79301;SHT31;68755;51.984;5.646;2023-08-01T05:26:33;19.2;75.7
79301;SHT31;68755;51.984;5.646;2023-08-01T05:29:02;19.2;75.8
79301;SHT31;68755;51.984;5.646;2023-08-01T05:31:32;19.2;76.0
79301;SHT31;68755;51.984;5.646;2023-08-01T05:34:02;19.2;76.1
79301;SHT31;68755;51.984;5.646;2023-08-01T05:36:31;19.2;75.9
79301;SHT31;68755;51.984;5.646;2023-08-01T05:39:01;19.3;76.0
79301;SHT31;68755;51.984;5.646;2023-08-01T05:41:31;19.3;76.1
79301;SHT31;68755;51.984;5.646;2023-08-01T05:44:00;19.3;76.1
79301;SHT31;68755;51.984;5.646;2023-08-01T05:46:30;19.3;76.3
79301;SHT31;68755;51.984;5.646;2023-08-01T05:49:00;19.3;76.3
79301;SHT31;68755;51.984;5.646;2023-08-01T05:51:29;19.4;76.4
79301;SHT31;68755;51.984;5.646;2023-08-01T05:54:01;19.4;76.2
79301;SHT31;68755;51.984;5.646;2023-08-01T05:56:31;19.4;76.2
79301;SHT31;68755;51.984;5.646;2023-08-01T05:59:01;19.4;76.1
79301;SHT31;68755;51.984;5.646;2023-08-01T06:01:31;19.5;75.8
79301;SHT31;68755;51.984;5.646;2023-08-01T06:04:01;19.5;75.9
79301;SHT31;68755;51.984;5.646;2023-08-01T06:06:30;19.5;75.8
79301;SHT31;68755;51.984;5.646;2023-08-01T06:09:02;19.5;75.9
79301;SHT31;68755;51.984;5.646;2023-08-01T06:11:32;19.5;75.9
79301;SHT31;68755;51.984;5.646;2023-08-01T06:14:02;19.5;75.7
79301;SHT31;68755;51.984;5.646;2023-08-01T06:16:32;19.5;75.7
79301;SHT31;68755;51.984;5.646;2023-08-01T06:19:02;19.6;76.0
79301;SHT31;68755;51.984;5.646;2023-08-01T06:21:32;19.6;75.6
79301;SHT31;68755;51.984;5.646;2023-08-01T06:24:01;19.6;75.5
79301;SHT31;68755;51.984;5.646;2023-08-01T06:26:33;19.6;75.6
79301;SHT31;68755;51.984;5.646;2023-08-01T06:29:03;19.6;75.6
79301;SHT31;68755;51.984;5.646;2023-08-01T06:31:33;19.6;75.3
79301;SHT31;68755;51.984;5.646;2023-08-01T06:34:02;19.7;75.2
79301;SHT31;68755;51.984;5.646;2023-08-01T06:36:32;19.7;75.6
79301;SHT31;68755;51.984;5.646;2023-08-01T06:39:02;19.7;75.1
79301;SHT31;68755;51.984;5.646;2023-08-01T06:41:33;19.7;74.8
79301;SHT31;68755;51.984;5.646;2023-08-01T06:44:03;19.7;75.0
79301;SHT31;68755;51.984;5.646;2023-08-01T06:46:33;19.7;75.0
79301;SHT31;68755;51.984;5.646;2023-08-01T06:49:02;19.7;75.1
79301;SHT31;68755;51.984;5.646;2023-08-01T06:51:32;19.7;75.0
79301;SHT31;68755;51.984;5.646;2023-08-01T06:54:02;19.8;75.0
79301;SHT31;68755;51.984;5.646;2023-08-01T06:56:31;19.8;75.4
79301;SHT31;68755;51.984;5.646;2023-08-01T06:59:01;19.8;74.7
79301;SHT31;68755;51.984;5.646;2023-08-01T07:01:32;19.8;74.9
79301;SHT31;68755;51.984;5.646;2023-08-01T07:04:02;19.8;74.9
79301;SHT31;68755;51.984;5.646;2023-08-01T07:06:34;19.9;74.8
79301;SHT31;68755;51.984;5.646;2023-08-01T07:09:04;19.9;74.7
79301;SHT31;68755;51.984;5.646;2023-08-01T07:11:34;19.9;73.8
79301;SHT31;68755;51.984;5.646;2023-08-01T07:14:03;19.9;74.5
79301;SHT31;68755;51.984;5.646;2023-08-01T07:16:33;20.0;73.6
79301;SHT31;68755;51.984;5.646;2023-08-01T07:19:03;20.0;73.5
79301;SHT31;68755;51.984;5.646;2023-08-01T07:21:32;20.0;73.5
79301;SHT31;68755;51.984;5.646;2023-08-01T07:24:02;20.0;72.7
79301;SHT31;68755;51.984;5.646;2023-08-01T07:26:32;20.0;73.4
79301;SHT31;68755;51.984;5.646;2023-08-01T07:29:01;20.1;73.3
79301;SHT31;68755;51.984;5.646;2023-08-01T07:31:33;20.1;72.4
79301;SHT31;68755;51.984;5.646;2023-08-01T07:34:04;20.1;73.2
79301;SHT31;68755;51.984;5.646;2023-08-01T07:36:33;20.1;72.7
79301;SHT31;68755;51.984;5.646;2023-08-01T07:39:03;20.2;72.9
79301;SHT31;68755;51.984;5.646;2023-08-01T07:41:33;20.2;72.4
79301;SHT31;68755;51.984;5.646;2023-08-01T07:44:03;20.2;72.0
79301;SHT31;68755;51.984;5.646;2023-08-01T07:46:33;20.3;72.4
79301;SHT31;68755;51.984;5.646;2023-08-01T07:49:02;20.3;72.7
79301;SHT31;68755;51.984;5.646;2023-08-01T07:51:32;20.4;71.4
79301;SHT31;68755;51.984;5.646;2023-08-01T07:54:02;20.4;70.5
79301;SHT31;68755;51.984;5.646;2023-08-01T07:56:32;20.4;70.1
79301;SHT31;68755;51.984;5.646;2023-08-01T07:59:02;20.4;70.2
79301;SHT31;68755;51.984;5.646;2023-08-01T08:01:31;20.4;70.8
79301;SHT31;68755;51.984;5.646;2023-08-01T08:04:01;20.5;69.5
79301;SHT31;68755;51.984;5.646;2023-08-01T08:06:31;20.5;69.4
79301;SHT31;68755;51.984;5.646;2023-08-01T08:09:00;20.4;70.2
79301;SHT31;68755;51.984;5.646;2023-08-01T08:11:30;20.4;70.5
79301;SHT31;68755;51.984;5.646;2023-08-01T08:14:02;20.4;70.8
79301;SHT31;68755;51.984;5.646;2023-08-01T08:16:32;20.4;69.7
79301;SHT31;68755;51.984;5.646;2023-08-01T08:19:01;20.4;71.9
79301;SHT31;68755;51.984;5.646;2023-08-01T08:21:31;20.4;70.9
79301;SHT31;68755;51.984;5.646;2023-08-01T08:24:03;20.4;70.3
79301;SHT31;68755;51.984;5.646;2023-08-01T08:26:33;20.4;70.6
79301;SHT31;68755;51.984;5.646;2023-08-01T08:29:05;20.5;71.0
79301;SHT31;68755;51.984;5.646;2023-08-01T08:31:37;20.5;70.4
79301;SHT31;68755;51.984;5.646;2023-08-01T08:34:06;20.5;71.1
79301;SHT31;68755;51.984;5.646;2023-08-01T08:36:36;20.6;70.2
79301;SHT31;68755;51.984;5.646;2023-08-01T08:39:06;20.6;70.0
79301;SHT31;68755;51.984;5.646;2023-08-01T08:41:39;20.7;69.8
79301;SHT31;68755;51.984;5.646;2023-08-01T08:44:14;20.8;68.6
79301;SHT31;68755;51.984;5.646;2023-08-01T08:46:50;20.8;68.3
79301;SHT31;68755;51.984;5.646;2023-08-01T08:49:20;20.8;68.1
79301;SHT31;68755;51.984;5.646;2023-08-01T08:51:50;20.8;68.1
79301;SHT31;68755;51.984;5.646;2023-08-01T08:54:21;20.9;67.2
79301;SHT31;68755;51.984;5.646;2023-08-01T08:56:51;20.9;67.8
79301;SHT31;68755;51.984;5.646;2023-08-01T08:59:24;20.9;67.3
79301;SHT31;68755;51.984;5.646;2023-08-01T09:01:54;21.0;68.2
79301;SHT31;68755;51.984;5.646;2023-08-01T09:04:24;21.0;66.6
79301;SHT31;68755;51.984;5.646;2023-08-01T09:07:01;21.1;65.9
79301;SHT31;68755;51.984;5.646;2023-08-01T09:09:34;21.1;66.5
79301;SHT31;68755;51.984;5.646;2023-08-01T09:12:05;21.1;66.6
79301;SHT31;68755;51.984;5.646;2023-08-01T09:14:36;21.2;66.1
79301;SHT31;68755;51.984;5.646;2023-08-01T09:17:09;21.2;65.7
79301;SHT31;68755;51.984;5.646;2023-08-01T09:19:42;21.3;65.4
79301;SHT31;68755;51.984;5.646;2023-08-01T09:22:12;21.3;65.0
79301;SHT31;68755;51.984;5.646;2023-08-01T09:24:52;21.4;66.0
79301;SHT31;68755;51.984;5.646;2023-08-01T09:27:22;21.4;64.7
79301;SHT31;68755;51.984;5.646;2023-08-01T09:29:52;21.5;64.1
79301;SHT31;68755;51.984;5.646;2023-08-01T09:32:21;21.5;63.3
79301;SHT31;68755;51.984;5.646;2023-08-01T09:34:59;21.5;63.1
79301;SHT31;68755;51.984;5.646;2023-08-01T09:37:40;21.6;63.0
79301;SHT31;68755;51.984;5.646;2023-08-01T09:40:10;21.6;63.0
79301;SHT31;68755;51.984;5.646;2023-08-01T09:42:42;21.6;62.7
79301;SHT31;68755;51.984;5.646;2023-08-01T09:45:15;21.6;63.5
79301;SHT31;68755;51.984;5.646;2023-08-01T09:47:45;21.6;65.6
79301;SHT31;68755;51.984;5.646;2023-08-01T09:50:22;21.7;64.0
79301;SHT31;68755;51.984;5.646;2023-08-01T09:52:52;21.7;64.6
79301;SHT31;68755;51.984;5.646;2023-08-01T09:55:31;21.7;64.7
79301;SHT31;68755;51.984;5.646;2023-08-01T09:58:01;21.8;64.7
79301;SHT31;68755;51.984;5.646;2023-08-01T10:00:30;21.8;63.9
79301;SHT31;68755;51.984;5.646;2023-08-01T10:03:00;21.9;64.7
79301;SHT31;68755;51.984;5.646;2023-08-01T10:05:32;22.0;63.8
79301;SHT31;68755;51.984;5.646;2023-08-01T10:08:02;22.0;62.8
79301;SHT31;68755;51.984;5.646;2023-08-01T10:10:33;22.1;61.8
79301;SHT31;68755;51.984;5.646;2023-08-01T10:13:05;22.1;61.7
79301;SHT31;68755;51.984;5.646;2023-08-01T10:15:36;22.1;61.8
79301;SHT31;68755;51.984;5.646;2023-08-01T10:18:06;22.1;63.0
79301;SHT31;68755;51.984;5.646;2023-08-01T10:20:37;22.2;62.2
79301;SHT31;68755;51.984;5.646;2023-08-01T10:23:10;22.2;61.5
79301;SHT31;68755;51.984;5.646;2023-08-01T10:25:41;22.2;59.9
79301;SHT31;68755;51.984;5.646;2023-08-01T10:28:12;22.2;58.8
79301;SHT31;68755;51.984;5.646;2023-08-01T10:30:42;22.2;60.1
79301;SHT31;68755;51.984;5.646;2023-08-01T10:33:11;22.2;60.7
79301;SHT31;68755;51.984;5.646;2023-08-01T10:35:41;22.2;60.5
79301;SHT31;68755;51.984;5.646;2023-08-01T10:38:12;22.2;61.1
79301;SHT31;68755;51.984;5.646;2023-08-01T10:40:42;22.3;62.2
79301;SHT31;68755;51.984;5.646;2023-08-01T10:43:23;22.3;60.3
79301;SHT31;68755;51.984;5.646;2023-08-01T10:46:02;22.3;59.2
79301;SHT31;68755;51.984;5.646;2023-08-01T10:48:32;22.3;58.6
79301;SHT31;68755;51.984;5.646;2023-08-01T10:51:01;22.3;59.7
79301;SHT31;68755;51.984;5.646;2023-08-01T10:53:40;22.4;60.3
79301;SHT31;68755;51.984;5.646;2023-08-01T10:56:19;22.4;58.8
79301;SHT31;68755;51.984;5.646;2023-08-01T10:58:49;22.4;58.8
79301;SHT31;68755;51.984;5.646;2023-08-01T11:01:21;22.4;60.3
79301;SHT31;68755;51.984;5.646;2023-08-01T11:03:50;22.5;59.2
79301;SHT31;68755;51.984;5.646;2023-08-01T11:06:20;22.5;58.5
79301;SHT31;68755;51.984;5.646;2023-08-01T11:08:50;22.6;59.4
79301;SHT31;68755;51.984;5.646;2023-08-01T11:11:20;22.6;58.8
79301;SHT31;68755;51.984;5.646;2023-08-01T11:13:53;22.7;59.8
79301;SHT31;68755;51.984;5.646;2023-08-01T11:16:24;22.8;57.9
79301;SHT31;68755;51.984;5.646;2023-08-01T11:18:55;22.9;56.1
79301;SHT31;68755;51.984;5.646;2023-08-01T11:21:28;22.9;55.7
79301;SHT31;68755;51.984;5.646;2023-08-01T11:24:00;22.9;56.1
79301;SHT31;68755;51.984;5.646;2023-08-01T11:26:34;22.9;56.8
79301;SHT31;68755;51.984;5.646;2023-08-01T11:29:06;23.0;57.9
79301;SHT31;68755;51.984;5.646;2023-08-01T11:31:36;23.0;56.5
79301;SHT31;68755;51.984;5.646;2023-08-01T11:34:07;23.0;56.5
79301;SHT31;68755;51.984;5.646;2023-08-01T11:36:38;23.0;56.3
79301;SHT31;68755;51.984;5.646;2023-08-01T11:39:09;23.0;55.8
79301;SHT31;68755;51.984;5.646;2023-08-01T11:41:40;23.0;57.2
79301;SHT31;68755;51.984;5.646;2023-08-01T11:44:09;23.0;57.4
79301;SHT31;68755;51.984;5.646;2023-08-01T11:46:40;23.1;58.0
79301;SHT31;68755;51.984;5.646;2023-08-01T11:49:14;23.1;58.3
79301;SHT31;68755;51.984;5.646;2023-08-01T11:51:45;23.2;57.7
79301;SHT31;68755;51.984;5.646;2023-08-01T11:54:15;23.3;58.2
79301;SHT31;68755;51.984;5.646;2023-08-01T11:56:45;23.4;57.5
79301;SHT31;68755;51.984;5.646;2023-08-01T11:59:17;23.4;57.2
79301;SHT31;68755;51.984;5.646;2023-08-01T12:01:49;23.5;55.8
79301;SHT31;68755;51.984;5.646;2023-08-01T12:04:26;23.5;55.6
79301;SHT31;68755;51.984;5.646;2023-08-01T12:06:56;23.5;55.3
79301;SHT31;68755;51.984;5.646;2023-08-01T12:09:31;23.5;55.2
79301;SHT31;68755;51.984;5.646;2023-08-01T12:12:01;23.5;55.5
79301;SHT31;68755;51.984;5.646;2023-08-01T12:14:31;23.5;55.6
79301;SHT31;68755;51.984;5.646;2023-08-01T12:17:03;23.4;55.8
79301;SHT31;68755;51.984;5.646;2023-08-01T12:19:33;23.4;54.9
79301;SHT31;68755;51.984;5.646;2023-08-01T12:22:05;23.3;55.8
79301;SHT31;68755;51.984;5.646;2023-08-01T12:24:35;23.3;56.3
79301;SHT31;68755;51.984;5.646;2023-08-01T12:27:06;23.3;56.5
79301;SHT31;68755;51.984;5.646;2023-08-01T12:29:36;23.3;55.7
79301;SHT31;68755;51.984;5.646;2023-08-01T12:32:06;23.3;56.7
79301;SHT31;68755;51.984;5.646;2023-08-01T12:34:36;23.2;56.8
79301;SHT31;68755;51.984;5.646;2023-08-01T12:37:06;23.2;56.3
79301;SHT31;68755;51.984;5.646;2023-08-01T12:39:36;23.2;56.1
79301;SHT31;68755;51.984;5.646;2023-08-01T12:42:06;23.2;56.6
79301;SHT31;68755;51.984;5.646;2023-08-01T12:44:36;23.2;57.1
79301;SHT31;68755;51.984;5.646;2023-08-01T12:47:05;23.2;56.8
79301;SHT31;68755;51.984;5.646;2023-08-01T12:49:39;23.2;55.8
79301;SHT31;68755;51.984;5.646;2023-08-01T12:52:08;23.2;56.3
79301;SHT31;68755;51.984;5.646;2023-08-01T12:54:38;23.2;57.6
79301;SHT31;68755;51.984;5.646;2023-08-01T12:57:08;23.2;57.4
79301;SHT31;68755;51.984;5.646;2023-08-01T12:59:37;23.2;57.1
79301;SHT31;68755;51.984;5.646;2023-08-01T13:02:07;23.2;57.0
79301;SHT31;68755;51.984;5.646;2023-08-01T13:04:37;23.3;56.5
79301;SHT31;68755;51.984;5.646;2023-08-01T13:07:07;23.3;56.0
79301;SHT31;68755;51.984;5.646;2023-08-01T13:09:37;23.4;55.4
79301;SHT31;68755;51.984;5.646;2023-08-01T13:12:07;23.5;56.7
79301;SHT31;68755;51.984;5.646;2023-08-01T13:14:37;23.5;55.3
79301;SHT31;68755;51.984;5.646;2023-08-01T13:17:07;23.6;54.3
79301;SHT31;68755;51.984;5.646;2023-08-01T13:19:36;23.7;55.1
79301;SHT31;68755;51.984;5.646;2023-08-01T13:22:06;23.7;55.1
79301;SHT31;68755;51.984;5.646;2023-08-01T13:24:38;23.8;55.8
79301;SHT31;68755;51.984;5.646;2023-08-01T13:27:10;23.9;55.0
79301;SHT31;68755;51.984;5.646;2023-08-01T13:29:40;23.9;53.6
79301;SHT31;68755;51.984;5.646;2023-08-01T13:32:12;24.0;54.0
79301;SHT31;68755;51.984;5.646;2023-08-01T13:34:43;24.0;52.3
79301;SHT31;68755;51.984;5.646;2023-08-01T13:37:13;24.0;51.9
79301;SHT31;68755;51.984;5.646;2023-08-01T13:39:45;24.0;51.6
79301;SHT31;68755;51.984;5.646;2023-08-01T13:42:15;24.0;51.7
79301;SHT31;68755;51.984;5.646;2023-08-01T13:44:45;23.9;51.8
79301;SHT31;68755;51.984;5.646;2023-08-01T13:47:16;23.9;51.7
79301;SHT31;68755;51.984;5.646;2023-08-01T13:49:46;23.9;52.3
79301;SHT31;68755;51.984;5.646;2023-08-01T13:52:16;23.8;53.1
79301;SHT31;68755;51.984;5.646;2023-08-01T13:54:46;23.8;51.6
79301;SHT31;68755;51.984;5.646;2023-08-01T13:57:16;23.8;52.8
79301;SHT31;68755;51.984;5.646;2023-08-01T13:59:45;23.7;52.7
79301;SHT31;68755;51.984;5.646;2023-08-01T14:02:15;23.7;52.6
79301;SHT31;68755;51.984;5.646;2023-08-01T14:04:45;23.7;52.8
79301;SHT31;68755;51.984;5.646;2023-08-01T14:07:17;23.7;54.8
79301;SHT31;68755;51.984;5.646;2023-08-01T14:09:46;23.7;53.9
79301;SHT31;68755;51.984;5.646;2023-08-01T14:12:18;23.8;54.6
79301;SHT31;68755;51.984;5.646;2023-08-01T14:14:49;23.8;52.9
79301;SHT31;68755;51.984;5.646;2023-08-01T14:17:19;23.8;53.4
79301;SHT31;68755;51.984;5.646;2023-08-01T14:19:48;23.9;52.5
79301;SHT31;68755;51.984;5.646;2023-08-01T14:22:18;23.9;53.0
79301;SHT31;68755;51.984;5.646;2023-08-01T14:24:48;23.9;52.5
79301;SHT31;68755;51.984;5.646;2023-08-01T14:27:18;24.0;52.7
79301;SHT31;68755;51.984;5.646;2023-08-01T14:29:48;24.0;51.5
79301;SHT31;68755;51.984;5.646;2023-08-01T14:32:18;24.0;50.0
79301;SHT31;68755;51.984;5.646;2023-08-01T14:34:48;24.0;49.8
79301;SHT31;68755;51.984;5.646;2023-08-01T14:37:18;24.0;50.3
79301;SHT31;68755;51.984;5.646;2023-08-01T14:39:51;24.0;49.3
79301;SHT31;68755;51.984;5.646;2023-08-01T14:42:20;23.9;49.8
79301;SHT31;68755;51.984;5.646;2023-08-01T14:44:53;23.9;50.9
79301;SHT31;68755;51.984;5.646;2023-08-01T14:47:24;23.8;51.3
79301;SHT31;68755;51.984;5.646;2023-08-01T14:49:54;23.7;51.5
79301;SHT31;68755;51.984;5.646;2023-08-01T14:52:25;23.7;52.0
79301;SHT31;68755;51.984;5.646;2023-08-01T14:54:54;23.6;51.6
79301;SHT31;68755;51.984;5.646;2023-08-01T14:57:24;23.6;51.9
79301;SHT31;68755;51.984;5.646;2023-08-01T14:59:54;23.6;52.5
79301;SHT31;68755;51.984;5.646;2023-08-01T15:02:25;23.5;52.9
79301;SHT31;68755;51.984;5.646;2023-08-01T15:04:56;23.5;52.9
79301;SHT31;68755;51.984;5.646;2023-08-01T15:07:27;23.5;52.7
79301;SHT31;68755;51.984;5.646;2023-08-01T15:09:56;23.5;53.9
79301;SHT31;68755;51.984;5.646;2023-08-01T15:12:28;23.5;53.7
79301;SHT31;68755;51.984;5.646;2023-08-01T15:14:58;23.5;53.7
79301;SHT31;68755;51.984;5.646;2023-08-01T15:17:28;23.5;53.5
79301;SHT31;68755;51.984;5.646;2023-08-01T15:19:58;23.6;53.6
79301;SHT31;68755;51.984;5.646;2023-08-01T15:22:28;23.6;54.2
79301;SHT31;68755;51.984;5.646;2023-08-01T15:24:57;23.7;54.4
79301;SHT31;68755;51.984;5.646;2023-08-01T15:27:27;23.7;52.5
79301;SHT31;68755;51.984;5.646;2023-08-01T15:29:57;23.7;52.3
79301;SHT31;68755;51.984;5.646;2023-08-01T15:32:27;23.8;52.7
79301;SHT31;68755;51.984;5.646;2023-08-01T15:34:56;23.8;52.4
79301;SHT31;68755;51.984;5.646;2023-08-01T15:37:27;23.7;52.6
79301;SHT31;68755;51.984;5.646;2023-08-01T15:39:57;23.7;52.4
79301;SHT31;68755;51.984;5.646;2023-08-01T15:42:26;23.7;52.3
79301;SHT31;68755;51.984;5.646;2023-08-01T15:44:56;23.7;53.3
79301;SHT31;68755;51.984;5.646;2023-08-01T15:47:26;23.6;55.0
79301;SHT31;68755;51.984;5.646;2023-08-01T15:49:56;23.5;55.9
79301;SHT31;68755;51.984;5.646;2023-08-01T15:52:25;23.5;56.6
79301;SHT31;68755;51.984;5.646;2023-08-01T15:54:55;23.4;56.2
79301;SHT31;68755;51.984;5.646;2023-08-01T15:57:25;23.4;55.9
79301;SHT31;68755;51.984;5.646;2023-08-01T15:59:55;23.3;55.4
79301;SHT31;68755;51.984;5.646;2023-08-01T16:02:25;23.2;56.2
79301;SHT31;68755;51.984;5.646;2023-08-01T16:04:55;23.2;56.5
79301;SHT31;68755;51.984;5.646;2023-08-01T16:07:24;23.1;58.3
79301;SHT31;68755;51.984;5.646;2023-08-01T16:09:54;23.0;59.5
79301;SHT31;68755;51.984;5.646;2023-08-01T16:12:23;22.9;59.5
79301;SHT31;68755;51.984;5.646;2023-08-01T16:14:53;22.8;59.9
79301;SHT31;68755;51.984;5.646;2023-08-01T16:17:23;22.7;60.6
79301;SHT31;68755;51.984;5.646;2023-08-01T16:19:54;22.7;61.2
79301;SHT31;68755;51.984;5.646;2023-08-01T16:22:27;22.6;60.6